createdAt,value
2022-11-21T00:00:07.151Z,58.75
2022-11-21T00:10:09.104Z,57.60
2022-11-21T00:20:13.833Z,60.47
2022-11-21T00:30:15.522Z,64.22
2022-11-21T00:40:18.684Z,58.25
2022-11-21T00:50:22.272Z,56.73
2022-11-21T01:00:24.992Z,59.13
2022-11-21T01:10:26.708Z,53.90
2022-11-21T01:20:28.374Z,53.42
2022-11-21T01:30:31.110Z,48.75
2022-11-21T01:40:38.746Z,51.25
2022-11-21T01:50:40.846Z,47.22
2022-11-21T02:00:47.198Z,50.17
2022-11-21T02:11:07.088Z,48.03
2022-11-21T02:21:24.042Z,43.83
2022-11-21T02:31:25.605Z,46.60
2022-11-21T02:41:34.193Z,49.50
2022-11-21T02:51:35.777Z,52.45
2022-11-21T03:01:37.549Z,50.67
2022-11-21T03:11:43.729Z,47.25
2022-11-21T03:21:45.265Z,46.58
2022-11-21T03:31:47.128Z,48.40
2022-11-21T03:41:50.155Z,45.65
2022-11-21T03:51:51.826Z,41.95
2022-11-21T04:01:53.876Z,38.65
2022-11-21T04:11:55.577Z,38.20
2022-11-21T04:21:57.225Z,42.33
2022-11-21T04:31:58.920Z,46.30
2022-11-21T04:42:04.713Z,43.25
2022-11-21T04:52:06.470Z,48.30
2022-11-21T05:02:08.339Z,48.83
2022-11-21T05:12:29.964Z,44.90
2022-11-21T05:22:37.728Z,45.97
2022-11-21T05:32:39.560Z,48.55
2022-11-21T05:43:03.833Z,43.97
2022-11-21T05:53:12.290Z,46.80
2022-11-21T06:03:27.189Z,45.67
2022-11-21T06:13:30.204Z,44.78
2022-11-21T06:23:33.565Z,49.97
2022-11-21T06:33:37.438Z,53.30
2022-11-21T06:43:39.568Z,54.85
2022-11-21T06:53:41.183Z,60.33
2022-11-21T07:03:42.836Z,56.67
2022-11-21T07:13:46.538Z,58.50
2022-11-21T07:23:48.824Z,53.00
2022-11-21T07:33:50.469Z,56.10
2022-11-21T07:43:54.189Z,56.95
2022-11-21T07:54:03.855Z,54.97
2022-11-21T08:04:11.413Z,53.03
2022-11-21T08:14:12.992Z,51.55
2022-11-21T08:24:15.796Z,54.55
2022-11-21T08:34:17.437Z,59.85
2022-11-21T08:44:19.013Z,53.72
2022-11-21T08:54:24.481Z,53.67
2022-11-21T09:04:26.540Z,50.03
2022-11-21T09:14:54.891Z,48.95
2022-11-21T09:24:56.745Z,48.22
2022-11-21T09:35:03.948Z,52.65
2022-11-21T09:45:23.878Z,49.72
2022-11-21T09:55:56.427Z,45.38
2022-11-21T10:06:22.801Z,36.58
2022-11-21T10:16:44.861Z,33.30
2022-11-21T10:26:59.530Z,29.70
2022-11-21T10:37:37.038Z,29.30
2022-11-21T10:47:39.116Z,30.38
2022-11-21T10:57:52.364Z,26.05
2022-11-21T11:08:11.453Z,27.07
2022-11-21T11:18:14.642Z,28.05
2022-11-21T11:28:19.343Z,26.10
2022-11-21T11:38:26.712Z,26.00
2022-11-21T11:48:29.459Z,27.25
2022-11-21T11:58:43.707Z,26.58
2022-11-21T12:08:59.866Z,27.95
2022-11-21T12:19:11.105Z,29.75
2022-11-21T12:29:47.119Z,28.13
2022-11-21T12:40:07.225Z,29.77
2022-11-21T12:50:43.110Z,32.22
2022-11-21T13:01:20.898Z,31.92
2022-11-21T13:11:55.089Z,30.42
2022-11-21T13:21:57.020Z,29.67
2022-11-21T13:31:58.783Z,24.75
2022-11-21T13:42:20.649Z,17.65
2022-11-21T13:53:08.666Z,16.88
2022-11-21T14:03:58.797Z,16.55
2022-11-21T14:14:02.028Z,15.30
2022-11-21T14:24:14.556Z,17.23
2022-11-21T14:34:28.717Z,13.45
2022-11-21T14:44:30.973Z,14.13
2022-11-21T14:55:29.738Z,14.48
2022-11-21T15:06:00.180Z,14.35
2022-11-21T15:15:55.481Z,16.02
2022-11-21T15:26:01.447Z,15.82
2022-11-21T15:36:13.993Z,15.93
2022-11-21T15:46:32.162Z,16.80
2022-11-21T15:56:34.428Z,15.90
2022-11-21T16:06:36.417Z,15.80
2022-11-21T16:16:43.118Z,16.27
2022-11-21T16:26:45.062Z,19.67
2022-11-21T16:36:47.855Z,19.65
2022-11-21T16:46:51.916Z,17.27
2022-11-21T16:56:57.430Z,18.80
2022-11-21T17:07:03.585Z,20.85
2022-11-21T17:17:11.604Z,23.05
2022-11-21T17:27:14.307Z,21.73
2022-11-21T17:37:16.355Z,22.60
2022-11-21T17:47:21.471Z,22.92
2022-11-21T17:57:23.779Z,20.85
2022-11-21T18:07:25.835Z,21.88
2022-11-21T18:17:39.365Z,21.83
2022-11-21T18:27:42.502Z,22.77
2022-11-21T18:37:44.264Z,24.40
2022-11-21T18:47:47.917Z,24.30
2022-11-21T18:57:50.585Z,24.75
2022-11-21T19:07:59.760Z,27.92
2022-11-21T19:18:14.538Z,31.10
2022-11-21T19:28:18.636Z,28.90
2022-11-21T19:38:25.114Z,30.13
2022-11-21T19:48:30.830Z,27.25
2022-11-21T19:58:49.769Z,29.13
2022-11-21T20:09:04.348Z,29.48
2022-11-21T20:29:42.051Z,33.03
2022-11-21T20:39:54.258Z,35.03
2022-11-21T20:49:56.493Z,35.30
2022-11-21T20:59:59.934Z,33.13
2022-11-21T21:10:01.861Z,27.65
2022-11-21T21:20:04.204Z,25.17
2022-11-21T21:30:12.812Z,30.15
2022-11-21T21:40:19.721Z,31.15
2022-11-21T21:50:23.560Z,32.47
2022-11-21T22:00:25.172Z,34.30
2022-11-21T22:10:34.407Z,31.98
2022-11-21T22:20:36.082Z,32.47
2022-11-21T22:30:37.787Z,32.97
2022-11-21T22:40:46.615Z,26.88
2022-11-21T22:50:48.250Z,31.83
2022-11-21T23:00:50.973Z,30.88
2022-11-21T23:10:52.966Z,25.08
2022-11-21T23:20:55.950Z,19.75
2022-11-21T23:30:57.856Z,20.03
2022-11-21T23:40:59.529Z,23.52
2022-11-21T23:51:01.254Z,26.25
